createdAt,value
2023-01-11T09:53:09.839Z,11.39
2023-01-11T09:54:09.723Z,11.29
2023-01-11T09:55:09.675Z,11.28
2023-01-11T09:56:09.689Z,11.29
2023-01-11T09:57:09.680Z,11.28
2023-01-11T09:58:09.656Z,11.28
2023-01-11T09:59:09.648Z,11.27
2023-01-11T10:00:09.652Z,11.28
2023-01-11T10:01:09.707Z,11.28
2023-01-11T10:02:09.607Z,11.32
2023-01-11T10:03:09.630Z,11.38
2023-01-11T10:04:09.592Z,11.35
2023-01-11T10:05:09.675Z,11.19
2023-01-11T10:06:09.586Z,11.32
2023-01-11T10:07:09.560Z,11.29
2023-01-11T10:18:29.450Z,11.41
2023-01-11T10:18:29.554Z,11.39
2023-01-11T10:18:31.914Z,11.49
2023-01-11T10:18:32.463Z,11.32
2023-01-11T10:18:33.921Z,11.43
2023-01-11T10:19:37.516Z,11.39
2023-01-11T10:20:10.512Z,11.44
2023-01-11T10:21:09.387Z,11.49
2023-01-11T10:22:09.391Z,11.44
2023-01-11T10:23:09.379Z,11.39
2023-01-11T10:24:09.371Z,11.44
2023-01-11T10:25:11.335Z,11.49
2023-01-11T10:26:09.349Z,11.36
2023-01-11T10:27:09.441Z,11.46
2023-01-11T10:28:09.342Z,11.44
2023-01-11T10:29:09.301Z,11.56
2023-01-11T10:30:09.328Z,11.43
2023-01-11T10:31:09.317Z,11.46
2023-01-11T10:32:09.273Z,11.41
2023-01-11T10:33:09.286Z,11.41
2023-01-11T10:34:09.282Z,11.47
2023-01-11T10:35:09.233Z,11.49
2023-01-11T10:36:09.228Z,11.43
2023-01-11T10:37:09.208Z,11.47
2023-01-11T10:38:09.213Z,11.47
2023-01-11T10:39:09.199Z,11.38
2023-01-11T10:40:09.202Z,11.50
2023-01-11T10:41:09.212Z,11.44
2023-01-11T10:42:09.156Z,11.49
2023-01-11T10:43:09.234Z,11.54
2023-01-11T10:44:09.152Z,11.47
2023-01-11T10:45:09.133Z,11.57
2023-01-11T10:46:09.125Z,11.54
2023-01-11T10:47:09.101Z,11.43
2023-01-11T10:48:09.112Z,11.47
2023-01-11T10:49:09.082Z,11.53
2023-01-11T10:50:09.066Z,11.49
2023-01-11T10:51:09.069Z,11.54
2023-01-11T10:53:09.063Z,11.52
2023-01-11T10:54:09.020Z,11.56
2023-01-11T10:55:09.008Z,11.49
2023-01-11T10:56:09.000Z,11.61
2023-01-11T10:57:09.139Z,11.57
2023-01-11T10:58:09.006Z,11.52
2023-01-11T10:59:08.983Z,11.50
2023-01-11T11:00:08.976Z,11.61
2023-01-11T11:01:09.009Z,11.54
2023-01-11T11:02:08.986Z,11.57
2023-01-11T11:03:08.927Z,11.54
2023-01-11T11:04:08.949Z,11.62
2023-01-11T11:05:08.920Z,11.68
2023-01-11T11:06:08.898Z,11.52
2023-01-11T11:07:08.868Z,11.61
2023-01-11T11:08:08.874Z,11.57
2023-01-11T11:09:08.859Z,11.67
2023-01-11T11:10:08.865Z,11.75
2023-01-11T11:11:08.836Z,11.65
2023-01-11T11:12:08.829Z,11.72
2023-01-11T11:13:08.861Z,11.59
2023-01-11T11:14:08.820Z,11.74
2023-01-11T11:15:08.785Z,11.74
2023-01-11T11:16:08.838Z,11.57
2023-01-11T11:17:08.772Z,11.68
2023-01-11T11:18:08.766Z,11.74
2023-01-11T11:19:08.736Z,11.70
2023-01-11T11:20:08.763Z,11.74
2023-01-11T11:21:08.727Z,11.70
2023-01-11T11:22:08.703Z,11.67
2023-01-11T11:23:08.717Z,11.68
2023-01-11T11:24:08.680Z,11.54
2023-01-11T11:25:08.672Z,11.61
2023-01-11T11:26:08.672Z,11.54
2023-01-11T11:27:08.689Z,11.57
2023-01-11T11:28:08.664Z,11.56
2023-01-11T11:29:08.662Z,11.50
2023-01-11T11:30:08.637Z,11.53
2023-01-11T11:31:08.625Z,11.56
2023-01-11T11:32:08.606Z,11.61
2023-01-11T11:33:08.639Z,11.64
2023-01-11T11:34:08.667Z,11.67
2023-01-11T11:35:08.577Z,11.70
2023-01-11T11:36:08.558Z,11.56
2023-01-11T11:37:08.558Z,11.50
2023-01-11T11:38:08.543Z,11.61
2023-01-11T11:39:08.516Z,11.62
2023-01-11T11:40:08.527Z,11.54
2023-01-11T11:41:08.497Z,11.50
2023-01-11T11:42:08.489Z,11.59
2023-01-11T11:43:08.495Z,11.54
2023-01-11T11:44:08.466Z,11.49
2023-01-11T11:45:08.507Z,11.44
2023-01-11T11:46:08.532Z,11.47
2023-01-11T11:47:08.437Z,11.43
2023-01-11T11:48:08.442Z,11.32
2023-01-11T11:49:08.437Z,11.35
2023-01-11T11:50:08.401Z,11.31
2023-01-11T11:51:08.383Z,11.31
2023-01-11T11:52:08.367Z,11.35
2023-01-11T11:53:08.396Z,11.46
2023-01-11T11:54:08.367Z,11.35
2023-01-11T11:55:08.370Z,11.31
2023-01-11T11:56:08.339Z,11.35
2023-01-11T11:57:08.333Z,11.29
2023-01-11T11:58:08.328Z,11.29
2023-01-11T11:59:08.309Z,11.35
2023-01-11T12:00:08.287Z,11.29
2023-01-11T12:01:08.324Z,11.17
2023-01-11T12:02:08.303Z,11.21
2023-01-11T12:03:08.265Z,11.17
2023-01-11T12:04:08.255Z,11.13
2023-01-11T12:05:08.280Z,11.09
2023-01-11T12:06:08.207Z,11.13
2023-01-11T12:07:08.213Z,11.10
2023-01-11T12:08:08.211Z,11.16
2023-01-11T12:09:08.176Z,11.17
2023-01-11T12:10:08.166Z,11.16
2023-01-11T12:11:08.180Z,11.14
2023-01-11T12:12:08.192Z,11.06
2023-01-11T12:13:08.146Z,11.06
2023-01-11T12:14:08.135Z,11.03
2023-01-11T12:15:08.109Z,11.10
2023-01-11T12:16:08.103Z,11.11
2023-01-11T12:17:08.123Z,11.09
2023-01-11T12:18:08.074Z,11.11
2023-01-11T12:19:08.088Z,11.24
2023-01-11T12:20:08.065Z,11.17
2023-01-11T12:21:08.048Z,11.14
2023-01-11T12:22:08.027Z,11.32
2023-01-11T12:23:08.043Z,11.28
2023-01-11T12:24:08.002Z,11.32
2023-01-11T12:25:08.022Z,11.29
2023-01-11T12:26:08.001Z,11.44
2023-01-11T12:27:08.042Z,11.41
2023-01-11T12:28:07.959Z,11.44
2023-01-11T12:29:07.966Z,11.61
2023-01-11T12:30:07.972Z,11.59
2023-01-11T12:31:07.977Z,11.56
2023-01-11T12:32:07.931Z,11.68
2023-01-11T12:33:07.997Z,11.64
2023-01-11T12:34:07.917Z,11.71
2023-01-11T12:35:07.922Z,11.75
2023-01-11T12:36:07.878Z,11.72
2023-01-11T12:37:07.865Z,11.72
2023-01-11T12:38:07.859Z,11.75
2023-01-11T12:39:07.857Z,11.75
2023-01-11T12:40:07.850Z,11.67
2023-01-11T12:41:08.731Z,11.68
2023-01-11T12:42:08.424Z,11.72
2023-01-11T12:43:07.796Z,11.78
2023-01-11T12:44:07.779Z,11.71
2023-01-11T12:45:07.775Z,11.89
2023-01-11T12:46:07.842Z,11.74
2023-01-11T12:47:07.752Z,11.80
2023-01-11T12:48:07.758Z,11.75
2023-01-11T12:49:07.763Z,11.68
2023-01-11T12:50:07.712Z,11.71
2023-01-11T12:51:07.730Z,11.70
2023-01-11T12:52:07.690Z,11.72
2023-01-11T12:53:07.696Z,11.75
2023-01-11T12:54:07.678Z,11.90
2023-01-11T12:55:07.673Z,11.83
2023-01-11T12:56:07.644Z,11.89
2023-01-11T12:57:07.686Z,12.06
2023-01-11T12:58:07.636Z,12.13
2023-01-11T12:59:07.633Z,12.33
2023-01-11T13:00:07.631Z,12.49
2023-01-11T13:01:07.772Z,12.70
2023-01-11T13:02:07.661Z,12.88
2023-01-11T13:03:07.581Z,13.11
2023-01-11T13:04:07.560Z,13.46
2023-01-11T13:05:07.696Z,13.62
2023-01-11T13:06:07.534Z,13.91
2023-01-11T13:07:07.542Z,14.13
2023-01-11T13:08:07.529Z,14.28
2023-01-11T13:09:07.516Z,14.43
2023-01-11T13:10:07.496Z,14.60
2023-01-11T13:11:07.491Z,14.74
2023-01-11T13:12:07.472Z,14.90
2023-01-11T13:13:07.478Z,14.95
2023-01-11T13:14:07.560Z,15.06
2023-01-11T13:15:07.461Z,15.09
2023-01-11T13:16:07.435Z,15.24
2023-01-11T13:17:07.531Z,15.23
2023-01-11T13:18:07.423Z,15.28
2023-01-11T13:19:07.398Z,15.31
2023-01-11T13:20:07.374Z,15.48
2023-01-11T13:21:07.410Z,15.63
2023-01-11T13:22:07.381Z,15.82
2023-01-11T13:23:07.360Z,15.88
2023-01-11T13:24:07.352Z,15.99
2023-01-11T13:25:07.344Z,16.11
2023-01-11T13:26:07.310Z,16.20
2023-01-11T13:27:07.443Z,16.33
2023-01-11T13:28:11.026Z,16.38
2023-01-11T13:29:08.305Z,16.52
2023-01-11T13:30:07.283Z,16.59
2023-01-11T13:31:07.292Z,16.55
2023-01-11T13:32:07.251Z,16.14
2023-01-11T13:33:07.245Z,16.16
2023-01-11T13:34:07.247Z,16.01
2023-01-11T13:35:07.243Z,15.86
2023-01-11T13:36:12.281Z,15.61
2023-01-11T13:37:08.346Z,15.59
2023-01-11T13:38:07.196Z,15.48
2023-01-11T13:39:07.198Z,15.35
2023-01-11T13:40:07.161Z,15.36
2023-01-11T13:41:07.149Z,15.17
2023-01-11T13:42:07.143Z,15.05
2023-01-11T13:43:07.151Z,15.02
2023-01-11T13:44:07.120Z,14.99
2023-01-11T13:45:07.128Z,15.06
2023-01-11T13:46:07.171Z,15.17
2023-01-11T13:47:07.085Z,15.19
2023-01-11T13:48:07.135Z,15.33
2023-01-11T13:49:07.075Z,15.26
2023-01-11T13:50:07.078Z,15.24
2023-01-11T13:51:07.053Z,15.17
2023-01-11T13:52:07.034Z,15.20
2023-01-11T13:53:07.079Z,15.21
2023-01-11T13:54:07.008Z,15.17
2023-01-11T13:55:09.026Z,15.23
2023-01-11T13:56:06.974Z,15.19
2023-01-11T13:57:06.985Z,15.20
2023-01-11T13:58:06.969Z,15.11
2023-01-11T13:59:06.963Z,14.98
2023-01-11T14:00:06.967Z,15.06
2023-01-11T14:01:06.976Z,14.95
2023-01-11T14:02:06.918Z,14.95
2023-01-11T14:03:06.974Z,14.80
2023-01-11T14:04:06.909Z,14.62
2023-01-11T14:05:06.899Z,14.57
2023-01-11T14:06:06.885Z,14.35
2023-01-11T14:07:06.857Z,14.38
2023-01-11T14:08:06.858Z,14.24
2023-01-11T14:09:06.977Z,13.98
2023-01-11T14:10:06.838Z,13.83
2023-01-11T14:11:06.832Z,13.87
2023-01-11T14:12:06.811Z,13.74
2023-01-11T14:13:06.823Z,13.70
2023-01-11T14:14:06.782Z,13.55
2023-01-11T14:15:06.790Z,13.47
2023-01-11T14:16:06.841Z,13.24
2023-01-11T14:17:06.778Z,13.20
2023-01-11T14:18:06.736Z,13.17
2023-01-11T14:19:06.736Z,13.17
2023-01-11T14:20:06.706Z,13.15
2023-01-11T14:21:06.707Z,13.07
2023-01-11T14:22:06.708Z,13.03
2023-01-11T14:23:06.688Z,12.99
2023-01-11T14:24:06.673Z,12.96
2023-01-11T14:25:06.677Z,12.85
2023-01-11T14:26:06.647Z,12.77
2023-01-11T14:27:06.717Z,12.82
2023-01-11T14:28:06.633Z,12.70
2023-01-11T14:29:06.607Z,12.75
2023-01-11T14:30:06.593Z,12.62
2023-01-11T14:31:06.711Z,12.66
2023-01-11T14:32:06.599Z,12.56
2023-01-11T14:33:06.577Z,12.54
2023-01-11T14:34:06.548Z,12.49
2023-01-11T14:35:06.538Z,12.45
2023-01-11T14:36:06.527Z,12.42
2023-01-11T14:37:06.708Z,12.46
2023-01-11T14:38:06.524Z,12.39
2023-01-11T14:39:06.519Z,12.41
2023-01-11T14:40:06.481Z,12.26
2023-01-11T14:41:06.610Z,12.21
2023-01-11T14:42:06.483Z,12.24
2023-01-11T14:43:06.469Z,12.23
2023-01-11T14:44:06.507Z,12.19
2023-01-11T14:45:06.436Z,12.20
2023-01-11T14:46:06.561Z,12.11
2023-01-11T14:47:06.408Z,12.12
2023-01-11T14:48:06.422Z,12.13
2023-01-11T14:49:06.399Z,12.09
2023-01-11T14:50:06.389Z,11.99
2023-01-11T14:51:06.374Z,11.90
2023-01-11T14:52:06.346Z,11.96
2023-01-11T14:53:06.351Z,11.82
2023-01-11T14:54:06.335Z,11.93
2023-01-11T14:55:06.559Z,11.90
2023-01-11T14:56:06.300Z,11.89
2023-01-11T14:57:06.326Z,11.86
2023-01-11T14:58:06.283Z,11.78
2023-01-11T14:59:06.300Z,11.80
2023-01-11T15:00:06.269Z,11.68
2023-01-11T15:01:06.273Z,11.75
2023-01-11T15:02:06.308Z,11.71
2023-01-11T15:03:06.240Z,11.70
2023-01-11T15:04:06.228Z,11.71
2023-01-11T15:05:06.221Z,11.67
2023-01-11T15:06:06.223Z,11.64
2023-01-11T15:07:06.185Z,11.67
2023-01-11T15:08:06.163Z,11.65
2023-01-11T15:09:06.178Z,11.57
2023-01-11T15:10:06.252Z,11.53
2023-01-11T15:11:06.161Z,11.54
2023-01-11T15:12:06.128Z,11.46
2023-01-11T15:13:06.183Z,11.50
2023-01-11T15:14:06.117Z,11.43
2023-01-11T15:15:06.104Z,11.43
2023-01-11T15:16:06.162Z,11.46
2023-01-11T15:17:06.073Z,11.43
2023-01-11T15:18:06.066Z,11.38
2023-01-11T15:19:06.054Z,11.39
2023-01-11T15:20:06.152Z,11.38
2023-01-11T15:21:06.024Z,11.44
2023-01-11T15:22:06.026Z,11.35
2023-01-11T15:23:06.011Z,11.29
2023-01-11T15:24:05.984Z,11.32
2023-01-11T15:25:05.990Z,11.28
2023-01-11T15:26:06.000Z,11.28
2023-01-11T15:27:06.077Z,11.21
2023-01-11T15:28:05.948Z,11.27
2023-01-11T15:29:05.976Z,11.13
2023-01-11T15:30:05.931Z,11.09
2023-01-11T15:31:06.081Z,11.13
2023-01-11T15:32:05.927Z,11.17
2023-01-11T15:33:05.901Z,11.03
2023-01-11T15:34:05.874Z,11.10
2023-01-11T15:35:05.867Z,11.03
2023-01-11T15:36:05.886Z,11.06
2023-01-11T15:37:05.854Z,11.10
2023-01-11T15:38:05.859Z,11.02
2023-01-11T15:39:05.846Z,10.96
2023-01-11T15:40:05.806Z,11.06
2023-01-11T15:41:05.812Z,10.96
2023-01-11T15:42:05.821Z,10.94
2023-01-11T15:43:05.788Z,10.96
2023-01-11T15:44:05.766Z,10.98
2023-01-11T15:45:05.792Z,10.96
2023-01-11T15:46:05.765Z,10.89
2023-01-11T15:47:05.743Z,10.92
2023-01-11T15:48:05.735Z,10.98
2023-01-11T15:49:05.718Z,10.99
2023-01-11T15:50:05.696Z,11.01
2023-01-11T15:51:05.681Z,10.86
2023-01-11T15:52:05.709Z,10.88
2023-01-11T15:53:06.480Z,10.92
2023-01-11T15:54:05.677Z,10.80
2023-01-11T15:55:05.639Z,10.78
2023-01-11T15:56:05.652Z,10.83
2023-01-11T15:57:05.662Z,10.77
2023-01-11T15:58:05.623Z,10.66
2023-01-11T15:59:05.592Z,10.78
2023-01-11T16:00:05.598Z,10.86
2023-01-11T16:01:05.762Z,10.78
2023-01-11T16:02:05.588Z,10.77
2023-01-11T16:03:05.559Z,10.71
2023-01-11T16:04:06.530Z,10.80
2023-01-11T16:05:05.532Z,10.68
2023-01-11T16:06:05.533Z,10.65
2023-01-11T16:07:05.515Z,10.78
2023-01-11T16:08:05.511Z,10.68
2023-01-11T16:09:05.482Z,10.77
2023-01-11T16:10:05.474Z,10.65
2023-01-11T16:11:05.481Z,10.68
2023-01-11T16:12:05.464Z,10.74
2023-01-11T16:13:05.485Z,10.76
2023-01-11T16:14:05.439Z,10.76
2023-01-11T16:15:05.418Z,10.70
2023-01-11T16:16:05.511Z,10.66
2023-01-11T16:17:05.424Z,10.60
2023-01-11T16:18:05.397Z,10.62
2023-01-11T16:19:05.489Z,10.60
2023-01-11T16:20:05.359Z,10.59
2023-01-11T16:21:05.358Z,10.60
2023-01-11T16:22:05.339Z,10.53
2023-01-11T16:23:05.340Z,10.59
2023-01-11T16:24:05.363Z,10.53
2023-01-11T16:25:05.344Z,10.43
2023-01-11T16:26:05.313Z,10.58
2023-01-11T16:27:05.512Z,10.42
2023-01-11T16:28:05.305Z,10.51
2023-01-11T16:29:05.265Z,10.56
2023-01-11T16:30:05.265Z,10.46
2023-01-11T16:31:05.367Z,10.52
2023-01-11T16:32:05.301Z,10.53
2023-01-11T16:33:05.243Z,10.59
2023-01-11T16:34:05.229Z,10.55
2023-01-11T16:35:05.197Z,10.56
2023-01-11T16:36:05.198Z,10.58
2023-01-11T16:37:05.170Z,10.56
2023-01-11T16:38:05.159Z,10.56
2023-01-11T16:39:05.157Z,10.51
2023-01-11T16:40:05.160Z,10.47
2023-01-11T16:41:05.127Z,10.43
2023-01-11T16:42:05.135Z,10.60
2023-01-11T16:43:05.119Z,10.58
2023-01-11T16:44:05.102Z,10.56
2023-01-11T16:45:05.106Z,10.51
2023-01-11T16:46:05.139Z,10.58
2023-01-11T16:47:05.072Z,10.47
2023-01-11T16:48:05.115Z,10.55
2023-01-11T16:49:05.054Z,10.46
2023-01-11T16:50:05.056Z,10.46
2023-01-11T16:51:05.020Z,10.55
2023-01-11T16:52:04.999Z,10.60
2023-01-11T16:53:04.997Z,10.46
2023-01-11T16:54:05.068Z,10.60
2023-01-11T16:55:04.971Z,10.56
2023-01-11T16:56:04.978Z,10.52
2023-01-11T16:57:04.951Z,10.46
2023-01-11T16:58:04.941Z,10.47
2023-01-11T16:59:04.932Z,10.40
2023-01-11T17:00:04.929Z,10.47
2023-01-11T17:01:05.167Z,10.53
2023-01-11T17:02:04.976Z,10.52
2023-01-11T17:03:04.873Z,10.51
2023-01-11T17:04:09.942Z,10.52
2023-01-11T17:05:05.897Z,10.37
2023-01-11T17:06:04.846Z,10.44
2023-01-11T17:07:04.844Z,10.40
2023-01-11T17:08:04.822Z,10.37
2023-01-11T17:09:06.753Z,10.43
2023-01-11T17:10:04.884Z,10.36
2023-01-11T17:11:04.814Z,10.32
2023-01-11T17:12:04.775Z,10.24
2023-01-11T17:13:04.758Z,10.21
2023-01-11T17:14:04.754Z,10.19
2023-01-11T17:15:04.751Z,10.22
2023-01-11T17:16:04.874Z,10.30
2023-01-11T17:17:04.830Z,10.10
2023-01-11T17:18:04.754Z,10.15
2023-01-11T17:19:04.692Z,10.19
2023-01-11T17:20:04.692Z,10.07
2023-01-11T17:21:04.730Z,10.17
2023-01-11T17:22:04.694Z,10.14
2023-01-11T17:23:04.663Z,10.10
2023-01-11T17:24:04.656Z,10.06
2023-01-11T17:25:04.657Z,10.14
2023-01-11T17:26:05.081Z,10.07
2023-01-11T17:27:04.681Z,9.97
2023-01-11T17:28:04.610Z,10.03
2023-01-11T17:29:04.586Z,9.97
2023-01-11T17:30:04.579Z,9.96
2023-01-11T17:31:04.562Z,10.07
2023-01-11T17:32:04.705Z,9.97
2023-01-11T17:33:04.557Z,9.86
2023-01-11T17:34:04.526Z,9.93
2023-01-11T17:35:04.519Z,9.91
2023-01-11T17:36:04.507Z,9.88
2023-01-11T17:37:04.533Z,9.88
2023-01-11T17:38:04.514Z,9.85
2023-01-11T17:39:04.485Z,9.78
2023-01-11T17:40:04.465Z,9.85
2023-01-11T17:41:04.484Z,9.79
2023-01-11T17:42:04.456Z,9.82
2023-01-11T17:43:04.422Z,9.86
2023-01-11T17:44:04.434Z,9.79
2023-01-11T17:45:04.414Z,9.93
2023-01-11T17:46:04.428Z,9.89
2023-01-11T17:47:04.416Z,9.83
2023-01-11T17:48:04.389Z,9.82
2023-01-11T17:49:04.406Z,9.78
2023-01-11T17:50:04.366Z,9.75
2023-01-11T17:51:04.335Z,9.91
2023-01-11T17:52:04.330Z,9.75
2023-01-11T17:53:04.391Z,9.86
2023-01-11T17:54:04.321Z,9.79
2023-01-11T17:55:04.302Z,9.73
2023-01-11T17:56:04.281Z,9.60
2023-01-11T17:57:04.282Z,9.70
2023-01-11T17:58:04.285Z,9.68
2023-01-11T17:59:04.245Z,9.64
2023-01-11T18:00:04.235Z,9.61
2023-01-11T18:01:04.361Z,9.66
2023-01-11T18:02:04.261Z,9.66
2023-01-11T18:03:04.215Z,9.66
2023-01-11T18:04:04.209Z,9.61
2023-01-11T18:05:04.190Z,9.61
2023-01-11T18:06:04.169Z,9.60
2023-01-11T18:07:04.168Z,9.58
2023-01-11T18:08:04.162Z,9.66
2023-01-11T18:09:04.210Z,9.60
2023-01-11T18:10:04.207Z,9.50
2023-01-11T18:11:04.112Z,9.61
2023-01-11T18:12:04.118Z,9.70
2023-01-11T18:13:04.112Z,9.52
2023-01-11T18:14:04.083Z,9.56
2023-01-11T18:15:04.084Z,9.61
2023-01-11T18:16:04.056Z,9.63
2023-01-11T18:17:04.218Z,9.66
2023-01-11T18:18:04.033Z,9.52
2023-01-11T18:19:04.048Z,9.66
2023-01-11T18:20:04.010Z,9.49
2023-01-11T18:21:03.999Z,9.52
2023-01-11T18:22:03.988Z,9.53
2023-01-11T18:23:05.266Z,9.71
2023-01-11T18:24:03.980Z,9.63
2023-01-11T18:25:03.975Z,9.70
2023-01-11T18:26:03.943Z,9.68
2023-01-11T18:27:03.985Z,9.64
2023-01-11T18:28:03.924Z,9.63
2023-01-11T18:29:03.923Z,9.71
2023-01-11T18:30:03.944Z,9.64
2023-01-11T18:31:04.035Z,9.73
2023-01-11T18:32:03.902Z,9.68
2023-01-11T18:33:03.865Z,9.71
2023-01-11T18:34:03.865Z,9.63
2023-01-11T18:35:03.874Z,9.63
2023-01-11T18:36:03.861Z,9.64
2023-01-11T18:37:03.814Z,9.56
2023-01-11T18:38:03.813Z,9.68
2023-01-11T18:39:03.804Z,9.60
2023-01-11T18:40:03.838Z,9.61
2023-01-11T18:41:03.793Z,9.52
2023-01-11T18:42:03.777Z,9.56
2023-01-11T18:43:03.747Z,9.49
2023-01-11T18:44:03.753Z,9.53
2023-01-11T18:45:03.743Z,9.48
2023-01-11T18:46:03.806Z,9.53
2023-01-11T18:47:03.715Z,9.50
2023-01-11T18:48:03.702Z,9.53
2023-01-11T18:49:03.680Z,9.42
2023-01-11T18:50:03.692Z,9.48
2023-01-11T18:51:03.683Z,9.49
2023-01-11T18:52:03.649Z,9.38
2023-01-11T18:53:03.654Z,9.32
2023-01-11T18:54:03.647Z,9.34
2023-01-11T18:55:03.627Z,9.34
2023-01-11T18:56:03.648Z,9.43
2023-01-11T18:57:03.627Z,9.34
2023-01-11T18:58:03.597Z,9.43
2023-01-11T18:59:03.597Z,9.35
2023-01-11T19:00:03.579Z,9.39
2023-01-11T19:01:03.662Z,9.39
2023-01-11T19:02:16.000Z,9.39
2023-01-11T19:03:04.546Z,9.40
2023-01-11T19:04:03.543Z,9.40
2023-01-11T19:05:03.496Z,9.43
2023-01-11T19:06:03.495Z,9.39
2023-01-11T19:07:03.505Z,9.42
2023-01-11T19:08:03.483Z,9.49
2023-01-11T19:09:03.456Z,9.49
2023-01-11T19:10:03.458Z,9.43
2023-01-11T19:11:03.444Z,9.38
2023-01-11T19:12:03.452Z,9.34
2023-01-11T19:13:03.444Z,9.45
2023-01-11T19:14:03.417Z,9.53
2023-01-11T19:15:03.399Z,9.50
2023-01-11T19:16:03.444Z,9.39
2023-01-11T19:17:03.366Z,9.38
2023-01-11T19:18:03.421Z,9.45
2023-01-11T19:19:03.355Z,9.40
2023-01-11T19:20:03.335Z,9.45
2023-01-11T19:21:03.389Z,9.50
2023-01-11T19:22:03.337Z,9.45
2023-01-11T19:23:03.347Z,9.49
2023-01-11T19:24:03.305Z,9.45
2023-01-11T19:25:03.290Z,9.49
2023-01-11T19:26:03.287Z,9.56
2023-01-11T19:27:03.405Z,9.35
2023-01-11T19:28:03.271Z,9.50
2023-01-11T19:29:03.264Z,9.48
2023-01-11T19:30:03.233Z,9.34
2023-01-11T19:31:03.232Z,9.49
2023-01-11T19:32:03.204Z,9.56
2023-01-11T19:33:03.577Z,9.52
2023-01-11T19:34:03.177Z,9.52
2023-01-11T19:35:03.159Z,9.42
2023-01-11T19:36:03.172Z,9.52
2023-01-11T19:37:03.149Z,9.50
2023-01-11T19:38:03.142Z,9.49
2023-01-11T19:39:03.136Z,9.48
2023-01-11T19:40:03.119Z,9.46
2023-01-11T19:41:03.110Z,9.48
2023-01-11T19:42:03.204Z,9.42
2023-01-11T19:43:03.086Z,9.46
2023-01-11T19:44:03.096Z,9.35
2023-01-11T19:45:03.075Z,9.38
2023-01-11T19:46:03.071Z,9.35
2023-01-11T19:47:12.127Z,9.32
2023-01-11T19:48:04.030Z,9.40
2023-01-11T19:49:03.017Z,9.31
2023-01-11T19:50:03.012Z,9.24
2023-01-11T19:51:02.994Z,9.23
2023-01-11T19:52:02.971Z,9.23
2023-01-11T19:53:02.970Z,9.15
2023-01-11T19:54:02.963Z,9.25
2023-01-11T19:55:02.948Z,9.30
2023-01-11T19:56:02.932Z,9.24
2023-01-11T19:57:02.927Z,9.18
2023-01-11T19:58:02.915Z,9.21
2023-01-11T19:59:02.902Z,9.25
2023-01-11T20:00:02.904Z,9.16
2023-01-11T20:01:02.901Z,9.25
2023-01-11T20:02:02.861Z,9.25
2023-01-11T20:03:02.895Z,9.30
2023-01-11T20:04:02.848Z,9.31
2023-01-11T20:05:02.870Z,9.25
2023-01-11T20:06:02.834Z,9.23
2023-01-11T20:07:02.810Z,9.21
2023-01-11T20:08:02.787Z,9.28
2023-01-11T20:09:02.779Z,9.34
2023-01-11T20:10:02.819Z,9.24
2023-01-11T20:11:02.769Z,9.40
2023-01-11T20:12:02.759Z,9.27
2023-01-11T20:13:02.750Z,9.25
2023-01-11T20:14:02.724Z,9.34
2023-01-11T20:15:02.747Z,9.34
2023-01-11T20:16:02.833Z,9.24
2023-01-11T20:17:02.835Z,9.18
2023-01-11T20:18:02.686Z,9.27
2023-01-11T20:19:02.673Z,9.25
2023-01-11T20:20:02.655Z,9.31
2023-01-11T20:21:02.674Z,9.30
2023-01-11T20:22:02.896Z,9.21
2023-01-11T20:23:02.644Z,9.30
2023-01-11T20:24:02.627Z,9.18
2023-01-11T20:25:02.619Z,9.18
2023-01-11T20:26:02.616Z,9.25
2023-01-11T20:27:02.751Z,9.12
2023-01-11T20:28:02.577Z,9.21
2023-01-11T20:29:02.566Z,9.15
2023-01-11T20:30:02.547Z,9.12
2023-01-11T20:31:02.689Z,9.12
2023-01-11T20:32:21.128Z,9.12
2023-01-11T20:33:03.527Z,9.06
2023-01-11T20:34:02.502Z,9.16
2023-01-11T20:35:02.504Z,9.10
2023-01-11T20:36:02.491Z,9.10
2023-01-11T20:37:02.489Z,9.13
2023-01-11T20:38:02.468Z,9.09
2023-01-11T20:39:02.452Z,9.06
2023-01-11T20:40:02.457Z,9.05
2023-01-11T20:41:02.420Z,9.12
2023-01-11T20:42:02.428Z,9.05
2023-01-11T20:43:02.424Z,9.02
2023-01-11T20:44:02.396Z,9.12
2023-01-11T20:45:02.390Z,9.18
2023-01-11T20:46:02.440Z,9.09
2023-01-11T20:47:02.370Z,9.18
2023-01-11T20:48:02.339Z,9.20
2023-01-11T20:49:02.361Z,9.09
2023-01-11T20:50:02.319Z,9.18
2023-01-11T20:51:02.305Z,9.10
2023-01-11T20:52:02.395Z,9.16
2023-01-11T20:53:02.296Z,9.24
2023-01-11T20:54:02.284Z,9.13
2023-01-11T20:55:02.263Z,9.20
2023-01-11T20:56:02.260Z,9.18
2023-01-11T20:57:02.265Z,9.27
2023-01-11T20:58:02.223Z,9.31
2023-01-11T20:59:02.256Z,9.18
2023-01-11T21:00:02.201Z,9.25
2023-01-11T21:01:02.204Z,9.28
2023-01-11T21:02:02.191Z,9.20
2023-01-11T21:03:02.228Z,9.25
2023-01-11T21:04:02.212Z,9.27
2023-01-11T21:05:02.207Z,9.34
2023-01-11T21:06:02.146Z,9.27
2023-01-11T21:07:02.160Z,9.38
2023-01-11T21:08:02.121Z,9.24
2023-01-11T21:09:02.117Z,9.23
2023-01-11T21:10:02.112Z,9.24
2023-01-11T21:11:02.078Z,9.27
2023-01-11T21:12:02.063Z,9.39
2023-01-11T21:13:02.067Z,9.40
2023-01-11T21:14:02.074Z,9.48
2023-01-11T21:15:02.047Z,9.34
2023-01-11T21:16:02.116Z,9.32
2023-01-11T21:17:02.010Z,9.49
2023-01-11T21:18:02.010Z,9.43
2023-01-11T21:19:02.020Z,9.48
2023-01-11T21:20:01.985Z,9.46
2023-01-11T21:21:02.010Z,9.52
2023-01-11T21:22:01.953Z,9.53
2023-01-11T21:23:01.946Z,9.53
2023-01-11T21:24:01.987Z,9.50
2023-01-11T21:25:01.933Z,9.57
2023-01-11T21:26:01.925Z,9.57
2023-01-11T21:27:01.980Z,9.60
2023-01-11T21:28:01.897Z,9.56
2023-01-11T21:29:02.004Z,9.61
2023-01-11T21:30:01.908Z,9.70
2023-01-11T21:31:01.903Z,9.58
2023-01-11T21:32:01.854Z,9.67
2023-01-11T21:33:01.830Z,9.56
2023-01-11T21:34:01.834Z,9.67
2023-01-11T21:35:01.825Z,9.76
2023-01-11T21:36:01.794Z,9.75
2023-01-11T21:37:01.819Z,9.79
2023-01-11T21:38:01.781Z,9.71
2023-01-11T21:39:01.784Z,9.86
2023-01-11T21:40:01.758Z,9.76
2023-01-11T21:41:01.743Z,9.81
2023-01-11T21:42:01.736Z,9.82
2023-01-11T21:43:01.734Z,9.89
2023-01-11T21:44:01.726Z,9.83
2023-01-11T21:45:01.740Z,9.89
2023-01-11T21:46:01.698Z,9.91
2023-01-11T21:47:01.672Z,9.89
2023-01-11T21:48:01.669Z,10.03
2023-01-11T21:49:01.658Z,9.97
2023-01-11T21:50:01.689Z,9.91
2023-01-11T21:51:01.648Z,9.94
2023-01-11T21:52:01.814Z,10.04
2023-01-11T21:53:01.649Z,10.03
2023-01-11T21:54:01.592Z,10.06
2023-01-11T21:55:01.616Z,9.97
2023-01-11T21:56:01.570Z,10.00
2023-01-11T21:57:01.575Z,10.03
2023-01-11T21:58:01.561Z,10.09
2023-01-11T21:59:01.562Z,10.10
2023-01-11T22:00:01.560Z,10.07
2023-01-11T22:01:01.598Z,10.17
2023-01-11T22:02:01.505Z,10.17
2023-01-11T22:03:01.505Z,10.18
2023-01-11T22:04:01.556Z,10.24
2023-01-11T22:05:01.494Z,10.15
2023-01-11T22:06:01.469Z,10.15
2023-01-11T22:07:01.447Z,10.12
2023-01-11T22:08:01.449Z,10.09
2023-01-11T22:09:01.454Z,10.04
2023-01-11T22:10:05.593Z,10.10
2023-01-11T22:11:01.439Z,10.04
2023-01-11T22:12:01.428Z,10.07
2023-01-11T22:13:01.382Z,10.09
2023-01-11T22:14:01.386Z,10.09
2023-01-11T22:15:01.377Z,10.03
2023-01-11T22:16:01.419Z,10.00
2023-01-11T22:17:04.368Z,10.10
2023-01-11T22:18:01.337Z,10.07
2023-01-11T22:19:01.347Z,10.09
2023-01-11T22:20:01.316Z,9.99
2023-01-11T22:21:01.310Z,10.07
2023-01-11T22:22:01.280Z,10.12
2023-01-11T22:23:01.280Z,9.99
2023-01-11T22:24:01.263Z,10.10
2023-01-11T22:25:01.280Z,10.06
2023-01-11T22:26:01.245Z,10.07
2023-01-11T22:27:01.319Z,10.04
2023-01-11T22:28:01.215Z,10.07
2023-01-11T22:29:01.205Z,10.15
2023-01-11T22:30:01.184Z,10.28
2023-01-11T22:31:01.191Z,10.25
2023-01-11T22:32:01.263Z,10.26
2023-01-11T22:33:01.158Z,10.39
2023-01-11T22:34:01.141Z,10.32
2023-01-11T22:35:01.130Z,10.24
2023-01-11T22:36:01.128Z,10.30
2023-01-11T22:37:01.125Z,10.43
2023-01-11T22:38:01.095Z,10.43
2023-01-11T22:39:01.092Z,10.28
2023-01-11T22:40:01.890Z,10.43
2023-01-11T22:41:01.141Z,10.40
2023-01-11T22:42:01.076Z,10.47
2023-01-11T22:43:01.041Z,10.32
2023-01-11T22:44:01.030Z,10.33
2023-01-11T22:45:01.042Z,10.34
2023-01-11T22:46:01.055Z,10.39
2023-01-11T22:47:01.023Z,10.51
2023-01-11T22:48:00.991Z,10.42
2023-01-11T22:49:00.987Z,10.46
2023-01-11T22:50:00.958Z,10.47
2023-01-11T22:51:00.951Z,10.37
2023-01-11T22:52:00.949Z,10.44
2023-01-11T22:53:01.638Z,10.40
2023-01-11T22:54:00.927Z,10.52
2023-01-11T22:55:00.924Z,10.44
2023-01-11T22:56:00.903Z,10.44
2023-01-11T22:57:00.930Z,10.36
2023-01-11T22:58:00.897Z,10.43
2023-01-11T22:59:00.859Z,10.44
2023-01-11T23:00:00.859Z,10.44
2023-01-11T23:01:00.839Z,10.43